MSC Divina — 3FFA5 — position and weather

sailwx.info

Track history (hours):
 
Tides and Currents Weather Stations Pressure Air Temp Water Temp Dewpoint Dewpoint Depression Visibility Wind Speed Wind Dir Waves Ship Positions

MSC Divina

Last reported at 2017-Jan-19 20:31 UTC. Time now 2017-Jan-19 21:17 UTC.
Position N 25°47' W 080°10'.

Length 333 m; draft 8.6 m.

Type: Ship. MMSI: 373178000.

Date/timePositionNaut miles runAvg speedWind from/ knotsBaromVisibWave heightAir tempDewpointWater temp
2017-Jan-19 20:31N 25°47' W 080°10'0 0.0
2017-Jan-19 19:31N 25°47' W 080°10'0 0.0
2017-Jan-19 18:31N 25°47' W 080°10'0 0.0
2017-Jan-19 17:30N 25°47' W 080°10'0 0.0
2017-Jan-19 16:33N 25°47' W 080°10'0 0.0
2017-Jan-19 15:33N 25°47' W 080°10'0 0.0
2017-Jan-19 14:33N 25°47' W 080°10'0 0.0
2017-Jan-19 13:33N 25°47' W 080°10'0 0.0
2017-Jan-19 12:33N 25°47' W 080°10'0 0.0
2017-Jan-19 11:33N 25°47' W 080°10'0 0.4
2017-Jan-19 10:33N 25°47' W 080°11'7 6.9
2017-Jan-19 09:33N 25°46' W 080°03'1110.6
2017-Jan-19 08:33N 25°37' W 079°56'1918.7
2017-Jan-19 07:33N 25°19' W 079°51'  
2017-Jan-15 03:31N 25°59' W 079°35'1212.5
2017-Jan-15 02:33N 25°53' W 079°47'1414.2
2017-Jan-15 01:33N 25°46' W 080°01'9 8.4
2017-Jan-15 00:33N 25°47' W 080°10'0 0.0
2017-Jan-14 23:33N 25°47' W 080°10'0 0.0
2017-Jan-14 22:34N 25°47' W 080°10'0 0.0
2017-Jan-14 21:32N 25°47' W 080°10'0 0.0
2017-Jan-14 20:32N 25°47' W 080°10'0 0.0
2017-Jan-14 19:32N 25°47' W 080°10'0 0.0
2017-Jan-14 18:32N 25°47' W 080°10'0 0.0
2017-Jan-14 17:32N 25°47' W 080°10'0 0.0
2017-Jan-14 16:33N 25°47' W 080°10'0 0.0
2017-Jan-14 15:33N 25°47' W 080°10'0 0.0
2017-Jan-14 14:33N 25°47' W 080°10'0 0.0
2017-Jan-14 13:33N 25°47' W 080°10'0 0.0
2017-Jan-14 12:33N 25°47' W 080°10'0 0.0
2017-Jan-14 11:33N 25°47' W 080°10'1 0.5
2017-Jan-14 10:33N 25°47' W 080°11'7 7.5
2017-Jan-14 09:33N 25°47' W 080°03'1111.3
2017-Jan-14 08:33N 25°52' W 079°51'1514.9
2017-Jan-14 07:33N 25°59' W 079°36'  
Track history (hours):
 
Tides and Currents Weather Stations Pressure Air Temp Water Temp Dewpoint Dewpoint Depression Visibility Wind Speed Wind Dir Waves Ship Positions

MSC Divina

Last reported at 2017-Jan-19 20:31 UTC. Time now 2017-Jan-19 21:17 UTC.
Position N 25°47' W 080°10'.

Length 333 m; draft 8.6 m.

Type: Ship. MMSI: 373178000.

Date/timePositionNaut miles runAvg speedWind from/ knotsBaromVisibWave heightAir tempDewpointWater temp
2017-Jan-19 20:31N 25°47' W 080°10'0 0.0
2017-Jan-19 19:31N 25°47' W 080°10'0 0.0
2017-Jan-19 18:31N 25°47' W 080°10'0 0.0
2017-Jan-19 17:30N 25°47' W 080°10'0 0.0
2017-Jan-19 16:33N 25°47' W 080°10'0 0.0
2017-Jan-19 15:33N 25°47' W 080°10'0 0.0
2017-Jan-19 14:33N 25°47' W 080°10'0 0.0
2017-Jan-19 13:33N 25°47' W 080°10'0 0.0
2017-Jan-19 12:33N 25°47' W 080°10'0 0.0
2017-Jan-19 11:33N 25°47' W 080°10'0 0.4
2017-Jan-19 10:33N 25°47' W 080°11'7 6.9
2017-Jan-19 09:33N 25°46' W 080°03'1110.6
2017-Jan-19 08:33N 25°37' W 079°56'1918.7
2017-Jan-19 07:33N 25°19' W 079°51'  
2017-Jan-15 03:31N 25°59' W 079°35'1212.5
2017-Jan-15 02:33N 25°53' W 079°47'1414.2
2017-Jan-15 01:33N 25°46' W 080°01'9 8.4
2017-Jan-15 00:33N 25°47' W 080°10'0 0.0
2017-Jan-14 23:33N 25°47' W 080°10'0 0.0
2017-Jan-14 22:34N 25°47' W 080°10'0 0.0
2017-Jan-14 21:32N 25°47' W 080°10'0 0.0
2017-Jan-14 20:32N 25°47' W 080°10'0 0.0
2017-Jan-14 19:32N 25°47' W 080°10'0 0.0
2017-Jan-14 18:32N 25°47' W 080°10'0 0.0
2017-Jan-14 17:32N 25°47' W 080°10'0 0.0
2017-Jan-14 16:33N 25°47' W 080°10'0 0.0
2017-Jan-14 15:33N 25°47' W 080°10'0 0.0
2017-Jan-14 14:33N 25°47' W 080°10'0 0.0
2017-Jan-14 13:33N 25°47' W 080°10'0 0.0
2017-Jan-14 12:33N 25°47' W 080°10'0 0.0
2017-Jan-14 11:33N 25°47' W 080°10'1 0.5
2017-Jan-14 10:33N 25°47' W 080°11'7 7.5
2017-Jan-14 09:33N 25°47' W 080°03'1111.3
2017-Jan-14 08:33N 25°52' W 079°51'1514.9
2017-Jan-14 07:33N 25°59' W 079°36'  

Dump ship's entire track history